sensor_id;sensor_type;location;lat;lon;timestamp;pressure;altitude;pressure_sealevel;temperature;humidity
74230;BME280;62589;12.568;99.958;2023-02-11T00:00:18;100901.84;;;32.15;53.00
74230;BME280;62589;12.568;99.958;2023-02-11T00:02:44;100894.31;;;32.16;52.71
74230;BME280;62589;12.568;99.958;2023-02-11T00:05:11;100900.66;;;32.16;53.00
74230;BME280;62589;12.568;99.958;2023-02-11T00:07:37;100912.22;;;32.18;52.48
74230;BME280;62589;12.568;99.958;2023-02-11T00:10:04;100915.38;;;32.17;52.66
74230;BME280;62589;12.568;99.958;2023-02-11T00:12:36;100914.94;;;32.15;52.72
74230;BME280;62589;12.568;99.958;2023-02-11T00:15:04;100916.16;;;32.17;52.48
74230;BME280;62589;12.568;99.958;2023-02-11T00:17:31;100916.16;;;32.17;53.10
74230;BME280;62589;12.568;99.958;2023-02-11T00:19:58;100924.13;;;32.19;52.86
74230;BME280;62589;12.568;99.958;2023-02-11T00:22:24;100932.91;;;32.21;53.15
74230;BME280;62589;12.568;99.958;2023-02-11T00:24:51;100932.13;;;32.24;53.12
74230;BME280;62589;12.568;99.958;2023-02-11T00:27:17;100937.72;;;32.27;53.16
74230;BME280;62589;12.568;99.958;2023-02-11T00:29:44;100945.69;;;32.29;52.64
74230;BME280;62589;12.568;99.958;2023-02-11T00:32:10;100936.59;;;32.32;52.34
74230;BME280;62589;12.568;99.958;2023-02-11T00:34:37;100952.53;;;32.38;52.93
74230;BME280;62589;12.568;99.958;2023-02-11T00:37:04;100944.25;;;32.42;52.85
74230;BME280;62589;12.568;99.958;2023-02-11T00:39:30;100946.28;;;32.49;52.44
74230;BME280;62589;12.568;99.958;2023-02-11T00:41:57;100944.34;;;32.53;53.01
74230;BME280;62589;12.568;99.958;2023-02-11T00:44:24;100955.94;;;32.58;52.65
74230;BME280;62589;12.568;99.958;2023-02-11T00:46:51;100951.22;;;32.62;52.82
74230;BME280;62589;12.568;99.958;2023-02-11T00:49:17;100950.88;;;32.71;52.46
74230;BME280;62589;12.568;99.958;2023-02-11T00:51:44;100965.69;;;32.78;52.42
74230;BME280;62589;12.568;99.958;2023-02-11T00:54:10;100960.56;;;32.84;52.32
74230;BME280;62589;12.568;99.958;2023-02-11T00:56:37;100974.94;;;32.93;52.30
74230;BME280;62589;12.568;99.958;2023-02-11T00:59:03;100974.22;;;33.00;52.34
74230;BME280;62589;12.568;99.958;2023-02-11T01:01:29;100977.41;;;33.05;51.78
74230;BME280;62589;12.568;99.958;2023-02-11T01:03:58;100985.06;;;33.16;51.70
74230;BME280;62589;12.568;99.958;2023-02-11T01:06:24;100985.53;;;33.21;51.52
74230;BME280;62589;12.568;99.958;2023-02-11T01:08:50;100995.91;;;33.28;51.76
74230;BME280;62589;12.568;99.958;2023-02-11T01:11:19;100999.19;;;33.37;51.58
74230;BME280;62589;12.568;99.958;2023-02-11T01:13:47;101007.59;;;33.44;51.29
74230;BME280;62589;12.568;99.958;2023-02-11T01:16:14;101006.81;;;33.51;50.95
74230;BME280;62589;12.568;99.958;2023-02-11T01:18:41;101013.63;;;33.57;51.17
74230;BME280;62589;12.568;99.958;2023-02-11T01:21:09;101004.06;;;33.54;51.10
74230;BME280;62589;12.568;99.958;2023-02-11T01:23:36;101013.25;;;33.58;50.76
74230;BME280;62589;12.568;99.958;2023-02-11T01:26:02;101020.41;;;33.59;51.04
74230;BME280;62589;12.568;99.958;2023-02-11T01:28:29;101025.97;;;33.59;50.92
74230;BME280;62589;12.568;99.958;2023-02-11T01:30:56;101033.56;;;33.62;51.20
74230;BME280;62589;12.568;99.958;2023-02-11T01:33:23;101037.53;;;33.61;50.60
74230;BME280;62589;12.568;99.958;2023-02-11T01:35:50;101035.13;;;33.60;50.75
74230;BME280;62589;12.568;99.958;2023-02-11T01:38:22;101045.47;;;33.59;50.93
74230;BME280;62589;12.568;99.958;2023-02-11T01:44:36;101052.28;;;33.65;51.21
74230;BME280;62589;12.568;99.958;2023-02-11T01:47:03;101052.63;;;33.60;51.36
74230;BME280;62589;12.568;99.958;2023-02-11T01:49:33;101055.44;;;33.60;51.36
74230;BME280;62589;12.568;99.958;2023-02-11T01:52:31;101058.25;;;33.67;51.18
74230;BME280;62589;12.568;99.958;2023-02-11T01:55:02;101059.03;;;33.64;51.33
74230;BME280;62589;12.568;99.958;2023-02-11T01:57:52;101059.84;;;33.65;51.22
74230;BME280;62589;12.568;99.958;2023-02-11T02:00:36;101063.81;;;33.67;51.04
74230;BME280;62589;12.568;99.958;2023-02-11T02:03:16;101063.81;;;33.67;50.94
74230;BME280;62589;12.568;99.958;2023-02-11T02:05:47;101071.81;;;33.72;51.28
74230;BME280;62589;12.568;99.958;2023-02-11T02:10:47;101070.25;;;33.75;51.10
74230;BME280;62589;12.568;99.958;2023-02-11T02:13:14;101081.84;;;33.81;50.48
74230;BME280;62589;12.568;99.958;2023-02-11T02:41:03;101088.03;;;34.18;49.22
74230;BME280;62589;12.568;99.958;2023-02-11T02:43:33;101088.50;;;34.27;48.97
74230;BME280;62589;12.568;99.958;2023-02-11T02:46:21;101089.34;;;34.35;48.91
74230;BME280;62589;12.568;99.958;2023-02-11T02:48:49;101088.97;;;34.36;49.34
74230;BME280;62589;12.568;99.958;2023-02-11T02:51:41;101102.53;;;34.41;49.10
74230;BME280;62589;12.568;99.958;2023-02-11T02:57:02;101079.81;;;34.39;48.12
74230;BME280;62589;12.568;99.958;2023-02-11T03:02:49;101082.25;;;34.52;48.17
74230;BME280;62589;12.568;99.958;2023-02-11T03:05:29;101077.09;;;34.61;48.95
74230;BME280;62589;12.568;99.958;2023-02-11T03:08:06;101080.69;;;34.58;48.04
74230;BME280;62589;12.568;99.958;2023-02-11T03:10:54;101079.53;;;34.69;47.63
74230;BME280;62589;12.568;99.958;2023-02-11T03:13:26;101081.94;;;34.71;47.05
74230;BME280;62589;12.568;99.958;2023-02-11T03:15:56;101083.56;;;34.79;47.69
74230;BME280;62589;12.568;99.958;2023-02-11T03:18:26;101078.75;;;34.76;47.63
74230;BME280;62589;12.568;99.958;2023-02-11T03:20:54;101072.34;;;34.72;47.63
74230;BME280;62589;12.568;99.958;2023-02-11T03:23:29;101073.94;;;34.73;47.49
74230;BME280;62589;12.568;99.958;2023-02-11T03:26:04;101072.81;;;34.85;47.19
74230;BME280;62589;12.568;99.958;2023-02-11T03:28:48;101065.66;;;34.98;47.88
74230;BME280;62589;12.568;99.958;2023-02-11T03:31:43;101068.44;;;34.94;47.09
74230;BME280;62589;12.568;99.958;2023-02-11T03:34:10;101070.84;;;35.13;46.82
74230;BME280;62589;12.568;99.958;2023-02-11T03:36:47;101060.91;;;35.27;46.91
74230;BME280;62589;12.568;99.958;2023-02-11T03:39:20;101068.06;;;35.13;46.06
74230;BME280;62589;12.568;99.958;2023-02-11T03:41:49;101062.91;;;35.19;45.93
74230;BME280;62589;12.568;99.958;2023-02-11T03:44:19;101059.34;;;35.29;46.53
74230;BME280;62589;12.568;99.958;2023-02-11T03:46:49;101052.97;;;35.43;45.66
74230;BME280;62589;12.568;99.958;2023-02-11T03:49:18;101049.38;;;35.46;46.54
74230;BME280;62589;12.568;99.958;2023-02-11T03:51:48;101052.56;;;35.48;47.57
74230;BME280;62589;12.568;99.958;2023-02-11T03:54:20;101052.97;;;35.36;47.69
74230;BME280;62589;12.568;99.958;2023-02-11T03:56:55;101039.78;;;35.40;47.12
74230;BME280;62589;12.568;99.958;2023-02-11T03:59:22;101036.63;;;35.52;47.19
74230;BME280;62589;12.568;99.958;2023-02-11T04:01:48;101037.38;;;35.60;47.00
74230;BME280;62589;12.568;99.958;2023-02-11T04:04:15;101028.22;;;35.59;46.98
74230;BME280;62589;12.568;99.958;2023-02-11T04:06:41;101035.38;;;35.64;47.09
74230;BME280;62589;12.568;99.958;2023-02-11T04:09:09;101023.41;;;35.70;47.32
74230;BME280;62589;12.568;99.958;2023-02-11T04:11:36;101023.00;;;35.68;46.54
74230;BME280;62589;12.568;99.958;2023-02-11T04:14:03;101033.00;;;35.73;45.81
74230;BME280;62589;12.568;99.958;2023-02-11T04:16:29;101024.19;;;35.81;45.28
74230;BME280;62589;12.568;99.958;2023-02-11T04:18:56;101010.25;;;35.71;44.02
74230;BME280;62589;12.568;99.958;2023-02-11T04:21:22;101012.63;;;35.72;45.13
74230;BME280;62589;12.568;99.958;2023-02-11T04:23:49;101003.84;;;35.70;44.49
74230;BME280;62589;12.568;99.958;2023-02-11T04:26:15;101004.66;;;35.57;45.10
74230;BME280;62589;12.568;99.958;2023-02-11T04:28:42;101000.66;;;35.68;44.44
74230;BME280;62589;12.568;99.958;2023-02-11T04:31:08;100999.47;;;35.66;44.44
74230;BME280;62589;12.568;99.958;2023-02-11T04:33:36;100985.50;;;35.73;44.64
74230;BME280;62589;12.568;99.958;2023-02-11T04:36:03;100981.50;;;35.81;44.52
74230;BME280;62589;12.568;99.958;2023-02-11T04:38:29;100982.69;;;35.76;44.78
74230;BME280;62589;12.568;99.958;2023-02-11T04:40:56;100987.88;;;35.74;44.75
74230;BME280;62589;12.568;99.958;2023-02-11T04:43:25;100968.34;;;35.71;45.41
74230;BME280;62589;12.568;99.958;2023-02-11T04:45:55;100966.75;;;35.73;44.76
74230;BME280;62589;12.568;99.958;2023-02-11T04:48:21;100968.72;;;35.84;45.08
74230;BME280;62589;12.568;99.958;2023-02-11T04:50:47;100969.13;;;35.78;44.57
74230;BME280;62589;12.568;99.958;2023-02-11T04:53:14;100971.50;;;35.91;44.28
74230;BME280;62589;12.568;99.958;2023-02-11T04:55:40;100963.91;;;35.91;44.51
74230;BME280;62589;12.568;99.958;2023-02-11T04:58:07;100959.97;;;35.74;43.75
74230;BME280;62589;12.568;99.958;2023-02-11T05:00:33;100934.03;;;35.74;44.58
74230;BME280;62589;12.568;99.958;2023-02-11T05:03:00;100939.19;;;35.79;44.08
74230;BME280;62589;12.568;99.958;2023-02-11T05:05:26;100938.38;;;35.86;43.88
74230;BME280;62589;12.568;99.958;2023-02-11T05:07:52;100935.97;;;35.88;43.64
74230;BME280;62589;12.568;99.958;2023-02-11T05:10:19;100923.53;;;35.99;45.23
74230;BME280;62589;12.568;99.958;2023-02-11T05:12:47;100923.44;;;36.17;44.62
74230;BME280;62589;12.568;99.958;2023-02-11T05:15:14;100919.03;;;36.23;44.06
74230;BME280;62589;12.568;99.958;2023-02-11T05:17:40;100913.97;;;36.00;43.36
74230;BME280;62589;12.568;99.958;2023-02-11T05:20:07;100906.72;;;36.10;42.41
74230;BME280;62589;12.568;99.958;2023-02-11T05:22:34;100895.88;;;36.26;42.71
74230;BME280;62589;12.568;99.958;2023-02-11T05:25:00;100894.28;;;36.18;42.19
74230;BME280;62589;12.568;99.958;2023-02-11T05:27:27;100891.09;;;36.20;41.35
74230;BME280;62589;12.568;99.958;2023-02-11T05:29:53;100891.16;;;36.12;41.93
74230;BME280;62589;12.568;99.958;2023-02-11T05:32:20;100888.91;;;35.75;42.03
74230;BME280;62589;12.568;99.958;2023-02-11T05:34:46;100892.41;;;36.01;41.67
74230;BME280;62589;12.568;99.958;2023-02-11T05:37:13;100892.47;;;35.90;41.20
74230;BME280;62589;12.568;99.958;2023-02-11T05:39:39;100879.22;;;36.05;41.36
74230;BME280;62589;12.568;99.958;2023-02-11T05:42:06;100870.84;;;36.01;41.80
74230;BME280;62589;12.568;99.958;2023-02-11T05:44:32;100870.91;;;35.91;40.64
74230;BME280;62589;12.568;99.958;2023-02-11T05:46:59;100863.66;;;36.00;39.86
74230;BME280;62589;12.568;99.958;2023-02-11T05:49:25;100865.94;;;36.20;39.93
74230;BME280;62589;12.568;99.958;2023-02-11T05:51:51;100870.22;;;35.62;41.81
74230;BME280;62589;12.568;99.958;2023-02-11T05:54:18;100861.75;;;35.87;40.08
74230;BME280;62589;12.568;99.958;2023-02-11T05:56:44;100856.44;;;36.06;41.57
74230;BME280;62589;12.568;99.958;2023-02-11T05:59:13;100862.44;;;36.01;38.86
74230;BME280;62589;12.568;99.958;2023-02-11T06:01:40;100838.47;;;36.07;40.27
74230;BME280;62589;12.568;99.958;2023-02-11T06:04:06;100851.19;;;36.15;40.06
74230;BME280;62589;12.568;99.958;2023-02-11T06:06:33;100840.34;;;36.28;41.02
74230;BME280;62589;12.568;99.958;2023-02-11T06:08:59;100848.34;;;36.19;41.84
74230;BME280;62589;12.568;99.958;2023-02-11T06:11:25;100835.19;;;36.20;41.75
74230;BME280;62589;12.568;99.958;2023-02-11T06:13:52;100833.97;;;36.24;40.94
74230;BME280;62589;12.568;99.958;2023-02-11T06:16:18;100824.41;;;36.18;41.91
74230;BME280;62589;12.568;99.958;2023-02-11T06:18:45;100827.19;;;36.25;40.60
74230;BME280;62589;12.568;99.958;2023-02-11T06:21:11;100809.63;;;36.21;40.90
74230;BME280;62589;12.568;99.958;2023-02-11T06:23:38;100806.50;;;36.12;41.98
74230;BME280;62589;12.568;99.958;2023-02-11T06:26:07;100812.91;;;36.09;41.24
74230;BME280;62589;12.568;99.958;2023-02-11T06:28:34;100804.94;;;36.04;41.02
74230;BME280;62589;12.568;99.958;2023-02-11T06:31:04;100798.44;;;36.17;40.32
74230;BME280;62589;12.568;99.958;2023-02-11T06:33:32;100791.63;;;36.22;41.57
74230;BME280;62589;12.568;99.958;2023-02-11T06:35:59;100790.03;;;36.21;41.93
74230;BME280;62589;12.568;99.958;2023-02-11T06:41:40;100779.53;;;35.88;43.18
74230;BME280;62589;12.568;99.958;2023-02-11T06:44:07;100784.31;;;35.87;42.12
74230;BME280;62589;12.568;99.958;2023-02-11T06:46:33;100768.84;;;35.68;42.57
74230;BME280;62589;12.568;99.958;2023-02-11T06:49:00;100774.81;;;35.74;44.47
74230;BME280;62589;12.568;99.958;2023-02-11T06:51:26;100763.41;;;35.40;47.63
74230;BME280;62589;12.568;99.958;2023-02-11T06:53:53;100766.91;;;35.55;44.55
74230;BME280;62589;12.568;99.958;2023-02-11T06:56:21;100756.47;;;35.69;44.53
74230;BME280;62589;12.568;99.958;2023-02-11T06:58:52;100753.03;;;35.44;44.00
74230;BME280;62589;12.568;99.958;2023-02-11T07:01:21;100740.38;;;35.11;45.51
74230;BME280;62589;12.568;99.958;2023-02-11T07:03:48;100746.25;;;35.41;45.68
74230;BME280;62589;12.568;99.958;2023-02-11T07:06:20;100732.75;;;35.19;45.35
74230;BME280;62589;12.568;99.958;2023-02-11T07:08:47;100731.09;;;35.39;44.03
74230;BME280;62589;12.568;99.958;2023-02-11T07:11:16;100726.28;;;35.50;42.18
74230;BME280;62589;12.568;99.958;2023-02-11T07:13:44;100727.00;;;35.58;43.71
74230;BME280;62589;12.568;99.958;2023-02-11T07:16:13;100715.72;;;35.75;45.37
74230;BME280;62589;12.568;99.958;2023-02-11T07:18:39;100718.19;;;35.66;45.08
74230;BME280;62589;12.568;99.958;2023-02-11T07:21:11;100720.59;;;35.64;44.75
74230;BME280;62589;12.568;99.958;2023-02-11T07:23:38;100703.00;;;35.67;43.87
74230;BME280;62589;12.568;99.958;2023-02-11T07:26:12;100711.38;;;35.71;45.33
74230;BME280;62589;12.568;99.958;2023-02-11T07:28:39;100704.25;;;35.59;45.81
74230;BME280;62589;12.568;99.958;2023-02-11T07:31:18;100707.03;;;35.59;46.64
74230;BME280;62589;12.568;99.958;2023-02-11T07:33:45;100710.56;;;35.70;44.61
74230;BME280;62589;12.568;99.958;2023-02-11T07:36:15;100699.97;;;35.44;46.70
74230;BME280;62589;12.568;99.958;2023-02-11T07:38:42;100690.34;;;35.52;46.08
74230;BME280;62589;12.568;99.958;2023-02-11T07:41:11;100694.59;;;35.74;45.38
74230;BME280;62589;12.568;99.958;2023-02-11T07:43:39;100695.41;;;35.71;46.05
74230;BME280;62589;12.568;99.958;2023-02-11T07:46:11;100678.28;;;35.66;44.94
74230;BME280;62589;12.568;99.958;2023-02-11T07:48:38;100684.91;;;35.24;46.01
74230;BME280;62589;12.568;99.958;2023-02-11T07:51:10;100684.84;;;35.34;45.63
74230;BME280;62589;12.568;99.958;2023-02-11T07:53:37;100674.09;;;35.36;43.85
74230;BME280;62589;12.568;99.958;2023-02-11T07:56:05;100684.78;;;35.48;42.93
74230;BME280;62589;12.568;99.958;2023-02-11T07:58:32;100677.59;;;35.51;44.79
74230;BME280;62589;12.568;99.958;2023-02-11T08:01:07;100665.38;;;35.31;44.01
74230;BME280;62589;12.568;99.958;2023-02-11T08:03:35;100668.88;;;35.42;46.53
74230;BME280;62589;12.568;99.958;2023-02-11T08:06:11;100668.09;;;35.38;45.97
74230;BME280;62589;12.568;99.958;2023-02-11T08:08:38;100658.59;;;35.28;47.18
74230;BME280;62589;12.568;99.958;2023-02-11T08:11:26;100659.78;;;35.31;44.24
74230;BME280;62589;12.568;99.958;2023-02-11T08:13:53;100657.78;;;35.31;44.80
74230;BME280;62589;12.568;99.958;2023-02-11T08:16:28;100661.38;;;35.32;45.20
74230;BME280;62589;12.568;99.958;2023-02-11T08:18:58;100660.97;;;35.30;42.52
74230;BME280;62589;12.568;99.958;2023-02-11T08:21:25;100648.22;;;35.29;44.00
74230;BME280;62589;12.568;99.958;2023-02-11T08:23:52;100652.22;;;35.24;45.58
74230;BME280;62589;12.568;99.958;2023-02-11T08:26:21;100646.22;;;35.26;45.31
74230;BME280;62589;12.568;99.958;2023-02-11T08:28:49;100642.69;;;35.14;45.78
74230;BME280;62589;12.568;99.958;2023-02-11T08:31:22;100656.59;;;35.29;45.40
74230;BME280;62589;12.568;99.958;2023-02-11T08:33:49;100637.41;;;35.34;45.28
74230;BME280;62589;12.568;99.958;2023-02-11T08:36:21;100648.56;;;35.38;44.79
74230;BME280;62589;12.568;99.958;2023-02-11T08:38:49;100645.84;;;35.17;44.34
74230;BME280;62589;12.568;99.958;2023-02-11T08:41:16;100635.56;;;35.10;43.98
74230;BME280;62589;12.568;99.958;2023-02-11T08:43:44;100646.34;;;35.04;45.22
74230;BME280;62589;12.568;99.958;2023-02-11T08:46:13;100621.16;;;35.15;45.55
74230;BME280;62589;12.568;99.958;2023-02-11T08:48:40;100629.50;;;35.19;45.51
74230;BME280;62589;12.568;99.958;2023-02-11T08:51:09;100624.28;;;35.24;46.30
74230;BME280;62589;12.568;99.958;2023-02-11T08:53:36;100638.00;;;34.97;47.61
74230;BME280;62589;12.568;99.958;2023-02-11T08:56:03;100637.97;;;35.01;47.63
74230;BME280;62589;12.568;99.958;2023-02-11T08:58:30;100628.38;;;35.12;47.53
74230;BME280;62589;12.568;99.958;2023-02-11T09:00:57;100627.31;;;34.82;47.87
74230;BME280;62589;12.568;99.958;2023-02-11T09:03:26;100624.13;;;34.72;47.57
74230;BME280;62589;12.568;99.958;2023-02-11T09:05:52;100630.41;;;34.98;47.29
74230;BME280;62589;12.568;99.958;2023-02-11T09:10:47;100629.78;;;34.51;48.86
74230;BME280;62589;12.568;99.958;2023-02-11T09:13:14;100627.75;;;34.69;48.93
74230;BME280;62589;12.568;99.958;2023-02-11T09:15:44;100624.53;;;34.82;49.12
74230;BME280;62589;12.568;99.958;2023-02-11T09:18:21;100636.88;;;34.73;49.35
74230;BME280;62589;12.568;99.958;2023-02-11T09:20:48;100632.94;;;34.67;50.05
74230;BME280;62589;12.568;99.958;2023-02-11T09:33:35;100630.16;;;34.60;50.47
74230;BME280;62589;12.568;99.958;2023-02-11T09:36:03;100623.06;;;34.34;51.82
74230;BME280;62589;12.568;99.958;2023-02-11T09:44:02;100643.78;;;34.26;53.26
74230;BME280;62589;12.568;99.958;2023-02-11T09:46:32;100634.25;;;34.06;53.71
74230;BME280;62589;12.568;99.958;2023-02-11T09:51:58;100633.47;;;33.88;54.80
74230;BME280;62589;12.568;99.958;2023-02-11T10:11:03;100649.34;;;33.62;55.80
74230;BME280;62589;12.568;99.958;2023-02-11T10:20:00;100658.94;;;33.83;55.38
74230;BME280;62589;12.568;99.958;2023-02-11T10:24:58;100654.16;;;33.83;55.31
74230;BME280;62589;12.568;99.958;2023-02-11T10:27:34;100649.34;;;33.66;55.40
74230;BME280;62589;12.568;99.958;2023-02-11T10:32:59;100650.97;;;33.77;55.51
74230;BME280;62589;12.568;99.958;2023-02-11T10:35:28;100644.16;;;33.57;55.92
74230;BME280;62589;12.568;99.958;2023-02-11T10:37:55;100654.50;;;33.57;55.47
74230;BME280;62589;12.568;99.958;2023-02-11T10:40:27;100646.16;;;33.60;54.92
74230;BME280;62589;12.568;99.958;2023-02-11T10:42:57;100662.88;;;33.60;55.38
74230;BME280;62589;12.568;99.958;2023-02-11T10:45:33;100657.28;;;33.60;55.99
74230;BME280;62589;12.568;99.958;2023-02-11T10:48:04;100661.25;;;33.52;55.86
74230;BME280;62589;12.568;99.958;2023-02-11T10:50:33;100662.03;;;33.42;56.92
74230;BME280;62589;12.568;99.958;2023-02-11T10:53:20;100660.50;;;33.66;55.96
74230;BME280;62589;12.568;99.958;2023-02-11T10:55:54;100679.53;;;33.39;57.18
74230;BME280;62589;12.568;99.958;2023-02-11T10:58:30;100677.13;;;33.37;57.17
74230;BME280;62589;12.568;99.958;2023-02-11T11:00:58;100660.03;;;33.50;56.76
74230;BME280;62589;12.568;99.958;2023-02-11T11:03:28;100664.06;;;33.66;55.67
74230;BME280;62589;12.568;99.958;2023-02-11T11:06:01;100662.06;;;33.63;55.44
74230;BME280;62589;12.568;99.958;2023-02-11T11:08:42;100662.44;;;33.69;55.17
74230;BME280;62589;12.568;99.958;2023-02-11T11:11:17;100668.03;;;33.62;55.81
74230;BME280;62589;12.568;99.958;2023-02-11T11:13:54;100666.06;;;33.62;54.94
74230;BME280;62589;12.568;99.958;2023-02-11T11:16:28;100674.41;;;33.66;54.93
74230;BME280;62589;12.568;99.958;2023-02-11T11:21:42;100674.00;;;33.71;53.77
74230;BME280;62589;12.568;99.958;2023-02-11T11:24:26;100675.63;;;33.79;53.56
74230;BME280;62589;12.568;99.958;2023-02-11T11:27:00;100680.41;;;33.86;53.54
74230;BME280;62589;12.568;99.958;2023-02-11T11:29:39;100675.63;;;33.83;52.69
74230;BME280;62589;12.568;99.958;2023-02-11T11:32:24;100673.25;;;33.85;52.00
74230;BME280;62589;12.568;99.958;2023-02-11T11:34:55;100686.00;;;33.86;52.09
74230;BME280;62589;12.568;99.958;2023-02-11T11:37:27;100681.22;;;33.83;51.86
74230;BME280;62589;12.568;99.958;2023-02-11T11:40:01;100679.22;;;33.87;51.84
74230;BME280;62589;12.568;99.958;2023-02-11T11:42:31;100677.63;;;33.96;51.84
74230;BME280;62589;12.568;99.958;2023-02-11T11:45:00;100673.25;;;33.95;51.12
74230;BME280;62589;12.568;99.958;2023-02-11T11:47:44;100686.38;;;33.95;51.78
74230;BME280;62589;12.568;99.958;2023-02-11T11:53:14;100697.94;;;34.00;51.65
74230;BME280;62589;12.568;99.958;2023-02-11T11:55:44;100691.53;;;33.93;51.61
74230;BME280;62589;12.568;99.958;2023-02-11T11:58:18;100693.53;;;33.89;51.43
74230;BME280;62589;12.568;99.958;2023-02-11T12:12:08;100708.25;;;33.93;52.01
74230;BME280;62589;12.568;99.958;2023-02-11T12:18:00;100718.63;;;33.99;52.05
74230;BME280;62589;12.568;99.958;2023-02-11T12:26:18;100714.22;;;33.95;51.78
74230;BME280;62589;12.568;99.958;2023-02-11T12:32:04;100723.78;;;33.83;51.48
74230;BME280;62589;12.568;99.958;2023-02-11T12:37:43;100730.53;;;33.82;51.54
74230;BME280;62589;12.568;99.958;2023-02-11T12:43:02;100740.03;;;33.63;51.90
74230;BME280;62589;12.568;99.958;2023-02-11T12:46:07;100749.16;;;33.60;52.31
74230;BME280;62589;12.568;99.958;2023-02-11T12:51:57;100758.31;;;33.68;52.00
74230;BME280;62589;12.568;99.958;2023-02-11T12:54:52;100759.94;;;33.65;51.71
74230;BME280;62589;12.568;99.958;2023-02-11T12:57:24;100765.09;;;33.63;51.53
74230;BME280;62589;12.568;99.958;2023-02-11T13:02:35;100777.00;;;33.67;51.67
74230;BME280;62589;12.568;99.958;2023-02-11T13:07:53;100783.78;;;33.66;51.46
74230;BME280;62589;12.568;99.958;2023-02-11T13:10:40;100785.78;;;33.73;51.75
74230;BME280;62589;12.568;99.958;2023-02-11T13:13:18;100800.16;;;33.78;51.77
74230;BME280;62589;12.568;99.958;2023-02-11T13:16:06;100802.16;;;33.85;51.36
74230;BME280;62589;12.568;99.958;2023-02-11T13:22:00;100815.69;;;33.79;52.07
74230;BME280;62589;12.568;99.958;2023-02-11T13:24:57;100817.69;;;33.83;51.80
74230;BME280;62589;12.568;99.958;2023-02-11T13:30:21;100823.56;;;33.74;52.56
74230;BME280;62589;12.568;99.958;2023-02-11T13:35:36;100843.47;;;33.65;52.56
74230;BME280;62589;12.568;99.958;2023-02-11T13:38:26;100840.28;;;33.67;52.80
74230;BME280;62589;12.568;99.958;2023-02-11T13:41:18;100845.44;;;33.72;52.38
74230;BME280;62589;12.568;99.958;2023-02-11T13:46:50;100855.34;;;33.59;53.22
74230;BME280;62589;12.568;99.958;2023-02-11T13:49:36;100858.53;;;33.57;53.02
74230;BME280;62589;12.568;99.958;2023-02-11T13:52:23;100848.16;;;33.54;53.00
74230;BME280;62589;12.568;99.958;2023-02-11T13:54:52;100857.34;;;33.58;53.39
74230;BME280;62589;12.568;99.958;2023-02-11T13:59:57;100864.44;;;33.49;53.99
74230;BME280;62589;12.568;99.958;2023-02-11T14:02:33;100864.03;;;33.43;53.87
74230;BME280;62589;12.568;99.958;2023-02-11T14:05:32;100889.91;;;33.51;54.17
74230;BME280;62589;12.568;99.958;2023-02-11T14:08:22;100863.25;;;33.46;53.66
74230;BME280;62589;12.568;99.958;2023-02-11T14:16:22;100882.22;;;33.26;54.56
74230;BME280;62589;12.568;99.958;2023-02-11T14:37:52;100898.47;;;33.21;55.01
74230;BME280;62589;12.568;99.958;2023-02-11T14:43:12;100890.00;;;33.06;55.03
74230;BME280;62589;12.568;99.958;2023-02-11T14:45:44;100899.59;;;33.12;55.11
74230;BME280;62589;12.568;99.958;2023-02-11T14:48:18;100897.94;;;33.01;55.50
74230;BME280;62589;12.568;99.958;2023-02-11T14:50:49;100902.25;;;32.95;55.57
74230;BME280;62589;12.568;99.958;2023-02-11T14:53:23;100898.66;;;32.94;55.47
74230;BME280;62589;12.568;99.958;2023-02-11T14:55:52;100898.66;;;32.94;55.67
74230;BME280;62589;12.568;99.958;2023-02-11T14:58:23;100908.25;;;33.00;55.11
74230;BME280;62589;12.568;99.958;2023-02-11T15:03:35;100920.97;;;33.01;55.53
74230;BME280;62589;12.568;99.958;2023-02-11T15:06:15;100915.38;;;32.98;55.58
74230;BME280;62589;12.568;99.958;2023-02-11T15:11:18;100920.22;;;33.08;55.66
74230;BME280;62589;12.568;99.958;2023-02-11T15:13:46;100921.00;;;33.05;55.61
74230;BME280;62589;12.568;99.958;2023-02-11T15:16:16;100911.13;;;33.15;55.57
74230;BME280;62589;12.568;99.958;2023-02-11T15:18:49;100917.06;;;33.09;55.23
74230;BME280;62589;12.568;99.958;2023-02-11T15:21:25;100919.91;;;33.17;55.64
74230;BME280;62589;12.568;99.958;2023-02-11T15:24:30;100914.34;;;33.17;55.45
74230;BME280;62589;12.568;99.958;2023-02-11T15:29:38;100898.75;;;33.08;55.67
74230;BME280;62589;12.568;99.958;2023-02-11T15:34:35;100910.66;;;33.05;55.48
74230;BME280;62589;12.568;99.958;2023-02-11T15:37:04;100907.03;;;32.98;55.63
74230;BME280;62589;12.568;99.958;2023-02-11T15:39:39;100907.06;;;33.01;55.97
74230;BME280;62589;12.568;99.958;2023-02-11T15:44:42;100907.50;;;33.03;55.81
74230;BME280;62589;12.568;99.958;2023-02-11T15:47:11;100899.50;;;32.98;55.73
74230;BME280;62589;12.568;99.958;2023-02-11T15:49:38;100910.66;;;33.05;55.69
74230;BME280;62589;12.568;99.958;2023-02-11T15:52:10;100897.91;;;32.97;55.90
74230;BME280;62589;12.568;99.958;2023-02-11T15:54:38;100890.28;;;32.91;55.78
74230;BME280;62589;12.568;99.958;2023-02-11T15:57:07;100885.88;;;32.86;56.06
74230;BME280;62589;12.568;99.958;2023-02-11T15:59:40;100889.06;;;32.88;56.15
74230;BME280;62589;12.568;99.958;2023-02-11T16:02:16;100892.66;;;32.89;56.32
74230;BME280;62589;12.568;99.958;2023-02-11T16:05:00;100891.03;;;32.84;56.06
74230;BME280;62589;12.568;99.958;2023-02-11T16:07:47;100886.63;;;32.76;56.59